Time;durP1;ratioP1;P1;durP2;ratioP2;P2;SDS_P1;SDS_P2;PMS_P1;PMS_P2;Temp;Humidity;BMP_temperature;BMP_pressure;BME280_temperature;BME280_humidity;BME280_pressure;Samples;Min_cycle;Max_cycle;Signal;HPM_P1;HPM_P2
2024/01/13 00:00:49;;;;;;;16.50;5.80;;;;;;;;;;5036382;28;20802;-82
2024/01/13 00:03:16;;;;;;;14.20;5.93;;;;;;;;;;5068903;28;20462;-83
2024/01/13 00:05:42;;;;;;;16.48;5.97;;;;;;;;;;5071191;28;20403;-83
2024/01/13 00:08:08;;;;;;;15.85;6.25;;;;;;;;;;5068825;28;20400;-83
2024/01/13 00:10:34;;;;;;;19.05;6.15;;;;;;;;;;5069448;28;20400;-83
2024/01/13 00:13:00;;;;;;;16.55;6.53;;;;;;;;;;5068914;28;20842;-82
2024/01/13 00:15:26;;;;;;;15.75;6.30;;;;;;;;;;5069020;28;20408;-82
2024/01/13 00:17:52;;;;;;;16.35;6.35;;;;;;;;;;5053125;28;20414;-83
2024/01/13 00:20:24;;;;;;;17.30;6.47;;;;;;;;;;5051279;28;20908;-83
2024/01/13 00:22:50;;;;;;;16.42;6.57;;;;;;;;;;5051962;28;20423;-83
2024/01/13 00:25:17;;;;;;;18.02;6.45;;;;;;;;;;5052615;28;20396;-83
2024/01/13 00:27:43;;;;;;;18.85;6.70;;;;;;;;;;5044159;28;20749;-82
2024/01/13 00:30:09;;;;;;;14.88;6.38;;;;;;;;;;5053305;28;20880;-83
2024/01/13 00:32:35;;;;;;;17.88;7.05;;;;;;;;;;5069761;28;20487;-83
2024/01/13 00:35:02;;;;;;;19.02;6.65;;;;;;;;;;5068424;28;20453;-83
2024/01/13 00:37:28;;;;;;;21.73;6.10;;;;;;;;;;5069366;28;20546;-83
2024/01/13 00:39:54;;;;;;;20.05;5.47;;;;;;;;;;5069310;28;20446;-83
2024/01/13 00:42:20;;;;;;;19.70;5.97;;;;;;;;;;5069554;28;20455;-83
2024/01/13 00:44:46;;;;;;;17.40;5.53;;;;;;;;;;5051778;28;20533;-83
2024/01/13 00:47:12;;;;;;;17.15;5.50;;;;;;;;;;5053576;28;20411;-83
2024/01/13 00:49:38;;;;;;;14.32;5.15;;;;;;;;;;5052665;28;20954;-83
2024/01/13 00:52:04;;;;;;;16.60;5.35;;;;;;;;;;5034322;28;20413;-83
2024/01/13 00:54:30;;;;;;;14.13;4.80;;;;;;;;;;5036442;28;20410;-83
2024/01/13 00:56:56;;;;;;;15.57;5.32;;;;;;;;;;5050714;28;20459;-83
2024/01/13 00:59:22;;;;;;;14.27;4.93;;;;;;;;;;5069041;28;20399;-83
2024/01/13 01:01:49;;;;;;;16.25;5.00;;;;;;;;;;5058357;28;20455;-84
2024/01/13 01:04:15;;;;;;;18.13;5.32;;;;;;;;;;5052912;28;20407;-82
2024/01/13 01:06:41;;;;;;;12.82;4.80;;;;;;;;;;5029616;28;20846;-82
2024/01/13 01:09:07;;;;;;;15.13;5.03;;;;;;;;;;5073415;28;20432;-82
2024/01/13 01:11:33;;;;;;;13.90;4.75;;;;;;;;;;5056472;28;20434;-81
2024/01/13 01:13:59;;;;;;;12.98;4.75;;;;;;;;;;5053698;28;20428;-81
2024/01/13 01:16:25;;;;;;;14.65;4.70;;;;;;;;;;5072501;28;20413;-81
2024/01/13 01:18:52;;;;;;;14.68;5.10;;;;;;;;;;5072886;28;20802;-81
2024/01/13 01:21:18;;;;;;;17.17;4.85;;;;;;;;;;5072536;28;20443;-80
2024/01/13 01:23:44;;;;;;;17.50;5.77;;;;;;;;;;5056381;28;20440;-81
2024/01/13 01:26:10;;;;;;;12.65;4.93;;;;;;;;;;5056029;28;20482;-81
2024/01/13 01:28:37;;;;;;;14.23;5.00;;;;;;;;;;5073063;28;20466;-81
2024/01/13 01:31:06;;;;;;;19.27;5.10;;;;;;;;;;5055495;28;20428;-81
2024/01/13 01:33:32;;;;;;;13.50;5.30;;;;;;;;;;5071740;28;20403;-81
2024/01/13 01:35:58;;;;;;;12.90;5.25;;;;;;;;;;5056025;28;20448;-82
2024/01/13 01:38:24;;;;;;;13.60;5.25;;;;;;;;;;5056230;28;20408;-82
2024/01/13 01:40:54;;;;;;;16.77;5.55;;;;;;;;;;5056109;28;20396;-82
2024/01/13 01:43:20;;;;;;;17.95;5.80;;;;;;;;;;5071573;28;20406;-82
2024/01/13 01:45:56;;;;;;;16.80;5.13;;;;;;;;;;5072099;28;20404;-82
2024/01/13 01:48:27;;;;;;;13.77;5.00;;;;;;;;;;5052496;28;20420;-82
2024/01/13 01:50:56;;;;;;;20.52;5.90;;;;;;;;;;5055640;28;20488;-82
2024/01/13 01:53:22;;;;;;;14.13;5.47;;;;;;;;;;5072760;28;20391;-82
2024/01/13 01:55:49;;;;;;;24.02;5.78;;;;;;;;;;5072938;28;20396;-82
2024/01/13 01:58:15;;;;;;;16.75;6.05;;;;;;;;;;5070905;28;20910;-82
2024/01/13 02:00:41;;;;;;;14.70;5.30;;;;;;;;;;5072386;28;20411;-82
2024/01/13 02:03:08;;;;;;;15.30;5.45;;;;;;;;;;5070833;28;20404;-82
2024/01/13 02:05:35;;;;;;;17.33;5.57;;;;;;;;;;5051672;28;20717;-83
2024/01/13 02:08:01;;;;;;;15.77;5.20;;;;;;;;;;5072000;28;20417;-82
2024/01/13 02:10:28;;;;;;;19.73;5.50;;;;;;;;;;5054675;28;20400;-82
2024/01/13 02:12:54;;;;;;;19.73;5.85;;;;;;;;;;5054845;28;20403;-82
2024/01/13 02:15:20;;;;;;;18.70;5.43;;;;;;;;;;5054755;28;20798;-81
2024/01/13 02:17:46;;;;;;;16.67;5.22;;;;;;;;;;5054309;28;20749;-82
2024/01/13 02:20:12;;;;;;;13.30;4.45;;;;;;;;;;5037023;28;20410;-81
2024/01/13 02:22:38;;;;;;;11.33;5.03;;;;;;;;;;5071829;28;20420;-84
2024/01/13 02:25:05;;;;;;;18.15;5.32;;;;;;;;;;5055042;28;20412;-84
2024/01/13 02:27:31;;;;;;;19.25;5.30;;;;;;;;;;5071849;28;20809;-84
2024/01/13 02:30:00;;;;;;;16.55;5.00;;;;;;;;;;5072032;28;20392;-84
2024/01/13 02:32:26;;;;;;;16.90;4.95;;;;;;;;;;5072467;28;20434;-84
2024/01/13 02:34:55;;;;;;;13.90;4.95;;;;;;;;;;5054734;28;20410;-84
2024/01/13 02:37:22;;;;;;;18.53;5.13;;;;;;;;;;5054507;28;20492;-85
2024/01/13 02:39:48;;;;;;;17.48;5.40;;;;;;;;;;5071833;28;20399;-85
2024/01/13 02:42:14;;;;;;;18.45;5.50;;;;;;;;;;5053895;28;20974;-84
2024/01/13 02:44:40;;;;;;;17.08;5.35;;;;;;;;;;5071743;28;20420;-85
2024/01/13 02:47:06;;;;;;;18.85;5.30;;;;;;;;;;5070858;28;20403;-85
2024/01/13 02:49:41;;;;;;;16.67;5.60;;;;;;;;;;5054724;28;20404;-85
2024/01/13 02:52:07;;;;;;;12.95;4.88;;;;;;;;;;5071171;28;20414;-85
2024/01/13 02:54:33;;;;;;;26.40;5.28;;;;;;;;;;5052101;28;20451;-82
2024/01/13 02:56:59;;;;;;;14.50;5.10;;;;;;;;;;5053863;28;20408;-85
2024/01/13 02:59:25;;;;;;;18.35;5.15;;;;;;;;;;5055070;28;20736;-85
2024/01/13 03:01:51;;;;;;;14.50;4.97;;;;;;;;;;5052028;28;20742;-85
2024/01/13 03:04:17;;;;;;;18.80;5.40;;;;;;;;;;5040052;28;20405;-85
2024/01/13 03:06:43;;;;;;;18.38;5.72;;;;;;;;;;5043813;28;20431;-85
2024/01/13 03:09:11;;;;;;;18.33;5.15;;;;;;;;;;5054160;28;20399;-86
2024/01/13 03:11:37;;;;;;;16.70;5.30;;;;;;;;;;5070460;28;20740;-85
2024/01/13 03:14:03;;;;;;;16.43;5.33;;;;;;;;;;5071332;28;20848;-85
2024/01/13 03:16:29;;;;;;;16.90;5.30;;;;;;;;;;5046699;28;20499;-84
2024/01/13 03:18:55;;;;;;;19.98;5.40;;;;;;;;;;5048447;28;20495;-82
2024/01/13 03:21:21;;;;;;;17.90;5.05;;;;;;;;;;5047617;28;20873;-82
2024/01/13 03:23:47;;;;;;;17.83;5.15;;;;;;;;;;5053499;28;20423;-82
2024/01/13 03:26:14;;;;;;;18.15;4.95;;;;;;;;;;5069897;28;20407;-82
2024/01/13 03:28:40;;;;;;;14.32;4.43;;;;;;;;;;5070759;28;20399;-81
2024/01/13 03:31:06;;;;;;;16.37;4.67;;;;;;;;;;5069560;28;20404;-81
2024/01/13 03:33:32;;;;;;;16.75;4.60;;;;;;;;;;5068717;28;20420;-81
2024/01/13 03:35:58;;;;;;;19.27;4.60;;;;;;;;;;5053431;28;20439;-81
2024/01/13 03:38:25;;;;;;;16.88;4.78;;;;;;;;;;5037414;28;20729;-82
2024/01/13 03:40:51;;;;;;;14.35;4.97;;;;;;;;;;5054257;28;20482;-81
2024/01/13 03:43:17;;;;;;;12.20;4.32;;;;;;;;;;5052909;28;20399;-82
2024/01/13 03:45:43;;;;;;;16.75;4.55;;;;;;;;;;5053139;28;20411;-82
2024/01/13 03:48:09;;;;;;;16.65;5.18;;;;;;;;;;5053395;28;20421;-82
2024/01/13 03:50:35;;;;;;;21.00;5.20;;;;;;;;;;5051443;28;20415;-82
2024/01/13 03:53:01;;;;;;;15.10;5.00;;;;;;;;;;5052889;28;20403;-82
2024/01/13 03:55:27;;;;;;;15.70;5.03;;;;;;;;;;5037460;28;20400;-82
2024/01/13 03:57:54;;;;;;;15.88;5.25;;;;;;;;;;5052344;28;20408;-82
2024/01/13 04:00:20;;;;;;;18.50;4.90;;;;;;;;;;5053282;28;20437;-82
2024/01/13 04:02:46;;;;;;;14.25;5.10;;;;;;;;;;5035982;28;20462;-82
2024/01/13 04:05:12;;;;;;;12.68;4.38;;;;;;;;;;5053387;28;20404;-82
2024/01/13 04:07:38;;;;;;;17.02;4.88;;;;;;;;;;5035844;28;20818;-82
2024/01/13 04:10:04;;;;;;;20.35;5.07;;;;;;;;;;5052964;28;20486;-82
2024/01/13 04:12:30;;;;;;;14.73;4.45;;;;;;;;;;5036811;28;20399;-82
2024/01/13 04:14:56;;;;;;;13.15;4.30;;;;;;;;;;5070291;28;20415;-82
2024/01/13 04:17:23;;;;;;;14.20;4.33;;;;;;;;;;5068634;28;20438;-82
2024/01/13 04:19:49;;;;;;;11.27;4.50;;;;;;;;;;5070279;28;20920;-82
2024/01/13 04:22:15;;;;;;;15.37;4.60;;;;;;;;;;5051179;28;20867;-82
2024/01/13 04:24:41;;;;;;;15.15;4.50;;;;;;;;;;5069798;28;20751;-83
2024/01/13 04:27:07;;;;;;;16.35;5.50;;;;;;;;;;5069076;28;20887;-83
2024/01/13 04:29:33;;;;;;;10.95;4.43;;;;;;;;;;5053241;28;20490;-83
2024/01/13 04:31:59;;;;;;;17.35;4.78;;;;;;;;;;5068784;28;20408;-82
2024/01/13 04:34:25;;;;;;;14.20;4.40;;;;;;;;;;5069732;28;20411;-83
2024/01/13 04:36:51;;;;;;;13.93;4.47;;;;;;;;;;5052961;28;20399;-82
2024/01/13 04:39:17;;;;;;;12.05;4.30;;;;;;;;;;5051504;28;20419;-82
2024/01/13 04:41:44;;;;;;;17.20;4.80;;;;;;;;;;5053183;28;20813;-82
2024/01/13 04:44:10;;;;;;;14.90;4.55;;;;;;;;;;5072984;28;20430;-82
2024/01/13 04:46:36;;;;;;;13.43;4.50;;;;;;;;;;5073445;28;20470;-83
2024/01/13 04:49:02;;;;;;;13.50;4.10;;;;;;;;;;5068758;28;20416;-83
2024/01/13 04:51:28;;;;;;;14.52;4.43;;;;;;;;;;5072568;28;20820;-83
2024/01/13 04:53:56;;;;;;;16.43;4.50;;;;;;;;;;5073248;28;20895;-83
2024/01/13 04:56:22;;;;;;;14.18;4.88;;;;;;;;;;5040161;28;20790;-83
2024/01/13 04:58:49;;;;;;;12.98;4.60;;;;;;;;;;5072951;28;20403;-83
2024/01/13 05:01:15;;;;;;;16.85;4.63;;;;;;;;;;5072519;28;20459;-83
2024/01/13 05:03:42;;;;;;;13.63;4.28;;;;;;;;;;5072302;28;20399;-83
2024/01/13 05:06:08;;;;;;;14.10;4.60;;;;;;;;;;5057051;28;20399;-83
2024/01/13 05:08:34;;;;;;;12.68;4.25;;;;;;;;;;5071661;28;20419;-83
2024/01/13 05:11:00;;;;;;;13.35;4.03;;;;;;;;;;5072898;28;20953;-84
2024/01/13 05:13:26;;;;;;;12.98;4.25;;;;;;;;;;5072537;28;20434;-84
2024/01/13 05:15:52;;;;;;;11.97;4.87;;;;;;;;;;5072832;28;20395;-84
2024/01/13 05:18:18;;;;;;;10.82;3.92;;;;;;;;;;5072966;28;20392;-84
2024/01/13 05:20:44;;;;;;;9.30;3.50;;;;;;;;;;5027403;28;20409;-84
2024/01/13 05:23:11;;;;;;;11.68;3.33;;;;;;;;;;5054349;28;20458;-84
2024/01/13 05:25:37;;;;;;;10.32;3.63;;;;;;;;;;5054882;28;20454;-84
2024/01/13 05:28:03;;;;;;;12.47;4.83;;;;;;;;;;5055643;28;20395;-84
2024/01/13 05:30:32;;;;;;;48.45;6.45;;;;;;;;;;5055814;28;20439;-84
2024/01/13 05:32:59;;;;;;;117.78;11.20;;;;;;;;;;5055783;28;20415;-85
2024/01/13 05:35:25;;;;;;;19.25;4.10;;;;;;;;;;5056673;28;20752;-85
2024/01/13 05:37:51;;;;;;;12.68;3.42;;;;;;;;;;5056504;28;20410;-85
2024/01/13 05:40:19;;;;;;;13.63;3.67;;;;;;;;;;5073450;28;20456;-85
2024/01/13 05:42:46;;;;;;;10.73;3.75;;;;;;;;;;5073101;28;20412;-85
2024/01/13 05:45:12;;;;;;;24.70;4.95;;;;;;;;;;5056805;28;20981;-84
2024/01/13 05:47:38;;;;;;;13.48;3.65;;;;;;;;;;5056915;28;20818;-83
2024/01/13 05:50:04;;;;;;;12.40;3.20;;;;;;;;;;5055022;28;20431;-83
2024/01/13 05:52:31;;;;;;;18.33;4.00;;;;;;;;;;5036186;28;20409;-83
2024/01/13 05:54:57;;;;;;;157.80;11.52;;;;;;;;;;5068243;28;20765;-84
2024/01/13 05:57:23;;;;;;;33.70;5.07;;;;;;;;;;5072675;28;20407;-83
2024/01/13 05:59:50;;;;;;;49.80;5.00;;;;;;;;;;5088245;28;20421;-84
2024/01/13 06:02:16;;;;;;;11.82;3.10;;;;;;;;;;5055429;28;20790;-83
2024/01/13 06:04:42;;;;;;;14.83;3.20;;;;;;;;;;5072828;28;20404;-83
2024/01/13 06:07:09;;;;;;;9.05;2.88;;;;;;;;;;5056520;28;20408;-84
2024/01/13 06:09:35;;;;;;;63.67;5.87;;;;;;;;;;5074053;28;20502;-84
2024/01/13 06:12:16;;;;;;;79.80;7.18;;;;;;;;;;5058795;28;20401;-84
2024/01/13 06:14:42;;;;;;;9.15;3.03;;;;;;;;;;5038841;28;20404;-82
2024/01/13 06:17:08;;;;;;;82.97;7.53;;;;;;;;;;5039406;28;20419;-84
2024/01/13 06:19:35;;;;;;;40.45;5.07;;;;;;;;;;5055529;28;20404;-84
2024/01/13 06:22:07;;;;;;;64.30;4.97;;;;;;;;;;5072356;28;20757;-83
2024/01/13 06:24:33;;;;;;;9.85;3.10;;;;;;;;;;5055232;28;20404;-84
2024/01/13 06:27:05;;;;;;;10.07;3.00;;;;;;;;;;5073058;28;20482;-82
2024/01/13 06:29:31;;;;;;;8.00;2.78;;;;;;;;;;5055774;28;20435;-83
2024/01/13 06:31:57;;;;;;;61.58;5.68;;;;;;;;;;5070716;28;20415;-83
2024/01/13 06:34:24;;;;;;;8.50;2.80;;;;;;;;;;5070488;28;20431;-83
2024/01/13 06:37:01;;;;;;;5.90;2.40;;;;;;;;;;5054270;28;20399;-83
2024/01/13 06:39:31;;;;;;;7.82;2.70;;;;;;;;;;5071219;28;20494;-83
2024/01/13 06:42:06;;;;;;;8.63;2.90;;;;;;;;;;5070254;28;20497;-82
2024/01/13 06:44:44;;;;;;;6.90;2.80;;;;;;;;;;5071098;28;20958;-83
2024/01/13 06:47:13;;;;;;;6.07;2.53;;;;;;;;;;5069949;28;20495;-83
2024/01/13 06:49:45;;;;;;;6.03;2.38;;;;;;;;;;5053581;28;20927;-83
2024/01/13 06:52:12;;;;;;;9.05;2.80;;;;;;;;;;5069469;28;20430;-83
2024/01/13 06:55:03;;;;;;;19.83;3.85;;;;;;;;;;5062736;28;20409;-82
2024/01/13 06:57:29;;;;;;;11.40;2.60;;;;;;;;;;5066039;28;20442;-81
2024/01/13 07:00:10;;;;;;;5.95;2.35;;;;;;;;;;5070161;28;20418;-81
2024/01/13 07:02:47;;;;;;;8.00;2.47;;;;;;;;;;5068179;28;20919;-82
2024/01/13 07:05:20;;;;;;;4.65;2.08;;;;;;;;;;5048895;28;20430;-83
2024/01/13 07:07:47;;;;;;;5.67;2.20;;;;;;;;;;5067993;28;20487;-83
2024/01/13 07:10:16;;;;;;;5.40;1.90;;;;;;;;;;5066441;28;20407;-83
2024/01/13 07:12:42;;;;;;;3.67;1.80;;;;;;;;;;5048034;28;20424;-82
2024/01/13 07:15:10;;;;;;;5.28;2.17;;;;;;;;;;5050257;28;20427;-83
2024/01/13 07:17:46;;;;;;;5.18;2.10;;;;;;;;;;5050393;28;20429;-83
2024/01/13 07:20:24;;;;;;;5.65;1.90;;;;;;;;;;5054607;28;20436;-83
2024/01/13 07:22:52;;;;;;;5.13;2.10;;;;;;;;;;5069598;28;21000;-83
2024/01/13 07:25:22;;;;;;;4.90;2.67;;;;;;;;;;5053806;28;20411;-84
2024/01/13 07:27:48;;;;;;;6.17;3.07;;;;;;;;;;5068843;28;20427;-84
2024/01/13 07:30:29;;;;;;;6.13;2.88;;;;;;;;;;5068366;28;20906;-84
2024/01/13 07:32:58;;;;;;;7.93;3.20;;;;;;;;;;5069157;28;20432;-84
2024/01/13 07:35:27;;;;;;;10.38;3.90;;;;;;;;;;5052419;28;20453;-84
2024/01/13 07:38:05;;;;;;;12.13;5.35;;;;;;;;;;5053416;28;20411;-84
2024/01/13 07:40:40;;;;;;;13.07;6.03;;;;;;;;;;5070034;28;20436;-84
2024/01/13 07:43:11;;;;;;;16.88;6.60;;;;;;;;;;5069986;28;20469;-82
2024/01/13 07:45:52;;;;;;;18.27;7.20;;;;;;;;;;5069002;28;20465;-83
2024/01/13 07:48:28;;;;;;;17.65;8.80;;;;;;;;;;5065290;28;20948;-86
2024/01/13 07:51:00;;;;;;;22.47;9.50;;;;;;;;;;5051779;28;20465;-85
2024/01/13 07:53:32;;;;;;;20.83;9.10;;;;;;;;;;5065764;28;20561;-85
2024/01/13 07:56:24;;;;;;;23.27;8.85;;;;;;;;;;5069650;28;20407;-83
2024/01/13 07:59:24;;;;;;;;;;;;;;;;;;;;;
2024/01/13 08:02:10;;;;;;;25.98;11.77;;;;;;;;;;4994593;28;20420;-85
2024/01/13 08:04:36;;;;;;;24.52;12.10;;;;;;;;;;4960153;28;20428;-83
2024/01/13 08:07:12;;;;;;;30.02;13.15;;;;;;;;;;5042479;28;20419;-83
2024/01/13 08:09:42;;;;;;;32.58;14.73;;;;;;;;;;5040842;28;20396;-83
2024/01/13 08:12:12;;;;;;;36.58;15.57;;;;;;;;;;5069306;28;20410;-83
2024/01/13 08:14:44;;;;;;;35.88;17.05;;;;;;;;;;5053056;28;20527;-84
2024/01/13 08:17:35;;;;;;;35.50;17.83;;;;;;;;;;5061720;28;20491;-84
2024/01/13 08:20:16;;;;;;;38.05;17.90;;;;;;;;;;5044826;28;20783;-84
2024/01/13 08:22:46;;;;;;;39.40;18.38;;;;;;;;;;5066911;28;20506;-83
2024/01/13 08:25:27;;;;;;;42.97;19.83;;;;;;;;;;5025692;28;20417;-84
2024/01/13 08:28:08;;;;;;;47.92;20.95;;;;;;;;;;4991967;28;20435;-84
2024/01/13 08:30:52;;;;;;;43.13;21.20;;;;;;;;;;5048677;28;20484;-83
2024/01/13 08:33:26;;;;;;;42.97;20.65;;;;;;;;;;5040555;28;20455;-84
2024/01/13 08:36:11;;;;;;;46.13;20.08;;;;;;;;;;5052877;28;20409;-84
2024/01/13 08:38:49;;;;;;;41.53;19.83;;;;;;;;;;5052520;28;20404;-83
2024/01/13 08:41:37;;;;;;;43.63;21.42;;;;;;;;;;5069257;28;20458;-84
2024/01/13 08:44:16;;;;;;;47.43;21.40;;;;;;;;;;5062528;28;20430;-82
2024/01/13 08:46:45;;;;;;;45.15;21.58;;;;;;;;;;5033177;28;20435;-83
2024/01/13 08:49:17;;;;;;;46.38;22.25;;;;;;;;;;5034647;28;21158;-82
2024/01/13 08:51:52;;;;;;;46.78;22.55;;;;;;;;;;5052556;28;20752;-82
2024/01/13 08:54:27;;;;;;;50.13;23.65;;;;;;;;;;5053099;28;20403;-81
2024/01/13 08:57:28;;;;;;;58.10;28.47;;;;;;;;;;5063032;28;20818;-81
2024/01/13 09:00:00;;;;;;;56.97;30.45;;;;;;;;;;5028364;28;20408;-84
2024/01/13 09:02:46;;;;;;;60.78;31.00;;;;;;;;;;5057343;28;20441;-83
2024/01/13 09:05:42;;;;;;;66.07;32.97;;;;;;;;;;4983030;28;20776;-83
2024/01/13 09:08:14;;;;;;;65.97;33.05;;;;;;;;;;5005984;28;20433;-82
2024/01/13 09:10:40;;;;;;;65.82;33.00;;;;;;;;;;4992792;28;20501;-83
2024/01/13 09:13:22;;;;;;;69.65;33.80;;;;;;;;;;5001412;28;20428;-83
2024/01/13 09:19:22;;;;;;;70.77;34.70;;;;;;;;;;4958402;28;20461;-82
2024/01/13 09:21:54;;;;;;;68.15;34.10;;;;;;;;;;5026500;28;20430;-83
2024/01/13 09:24:33;;;;;;;62.53;33.00;;;;;;;;;;5011936;28;20414;-83
2024/01/13 09:26:59;;;;;;;65.40;34.33;;;;;;;;;;5028417;28;20417;-84
2024/01/13 09:29:37;;;;;;;65.13;33.95;;;;;;;;;;5043661;28;20425;-85
2024/01/13 09:32:24;;;;;;;69.13;35.33;;;;;;;;;;5033652;28;20432;-83
2024/01/13 09:34:52;;;;;;;67.13;33.70;;;;;;;;;;5030795;28;20429;-84
2024/01/13 09:37:27;;;;;;;66.30;35.75;;;;;;;;;;5053274;28;20415;-85
2024/01/13 09:39:59;;;;;;;64.10;35.92;;;;;;;;;;5072479;28;20396;-84
2024/01/13 09:46:20;;;;;;;67.75;35.60;;;;;;;;;;5069267;28;20449;-84
2024/01/13 09:49:16;;;;;;;63.60;36.03;;;;;;;;;;5069260;28;20586;-83
2024/01/13 09:58:07;;;;;;;61.45;32.85;;;;;;;;;;4993123;28;20777;-85
2024/01/13 10:01:07;;;;;;;56.53;32.35;;;4.20;99.90;;;;;;4994814;28;20904;-84
2024/01/13 10:03:39;;;;;;;59.17;32.05;;;;;;;;;;5028624;28;20895;-85
2024/01/13 10:06:24;;;;;;;60.05;31.80;;;;;;;;;;5039275;28;20454;-85
2024/01/13 10:08:56;;;;;;;57.88;31.30;;;;;;;;;;5055356;28;20399;-83
2024/01/13 10:11:31;;;;;;;54.97;31.57;;;;;;;;;;5071427;28;20490;-83
2024/01/13 10:14:28;;;;;;;52.92;30.25;;;;;;;;;;5071483;28;20665;-83
2024/01/13 10:17:22;;;;;;;50.42;29.60;;;;;;;;;;5054792;28;20454;-83
2024/01/13 10:20:22;;;;;;;56.10;30.27;;;;;;;;;;5071829;28;20957;-83
2024/01/13 10:23:03;;;;;;;54.00;30.42;;;;;;;;;;5062953;28;20920;-82
2024/01/13 10:25:35;;;;;;;53.17;30.27;;;;;;;;;;5071236;28;20490;-82
2024/01/13 10:28:21;;;;;;;59.00;31.73;;;;;;;;;;5054819;28;20405;-83
2024/01/13 10:30:50;;;;;;;55.40;29.83;;;;;;;;;;5055827;28;20425;-82
2024/01/13 10:33:58;;;;;;;53.28;28.27;;;;;;;;;;5057938;28;20419;-85
2024/01/13 10:36:30;;;;;;;55.35;29.55;;;;;;;;;;5021412;28;20893;-83
2024/01/13 10:39:05;;;;;;;52.80;29.27;;;;;;;;;;5011542;28;20417;-83
2024/01/13 10:41:41;;;;;;;51.65;27.50;;;;;;;;;;5018729;28;20441;-83
2024/01/13 10:44:39;;;;;;;54.27;28.60;;;;;;;;;;5033138;28;20487;-83
2024/01/13 10:47:56;;;;;;;56.50;29.43;;;;;;;;;;5027496;28;20422;-83
2024/01/13 10:50:38;;;;;;;;;;;;;;;;;;;;;
2024/01/13 10:53:17;;;;;;;56.67;28.90;;;;;;;;;;4989498;28;20400;-83
2024/01/13 10:56:16;;;;;;;58.17;28.60;;;;;;;;;;4989201;28;20409;-83
2024/01/13 10:59:05;;;;;;;;;;;;;;;;;;;;;
2024/01/13 11:02:07;;;;;;;64.25;30.48;;;;;;;;;;5010809;28;20427;-83
2024/01/13 11:08:20;;;;;;;60.78;28.00;;;;;;;;;;5006397;28;20430;-82
2024/01/13 11:17:18;;;;;;;61.85;27.60;;;;;;;;;;4933784;29;20434;-84
2024/01/13 11:20:10;;;;;;;57.90;26.95;;;4.20;99.90;;;;;;4919476;29;20434;-84
2024/01/13 11:23:08;;;;;;;64.78;26.75;;;;;;;;;;4920912;29;20434;-84
2024/01/13 11:25:38;;;;;;;58.05;26.42;;;;;;;;;;4922337;29;20950;-84
2024/01/13 11:28:42;;;;;;;54.23;25.63;;;;;;;;;;4978754;28;20860;-84
2024/01/13 11:31:42;;;;;;;54.38;24.27;;;;;;;;;;4950275;28;20931;-83
2024/01/13 11:34:11;;;;;;;52.00;24.23;;;;;;;;;;4921156;29;20506;-83
2024/01/13 11:36:59;;;;;;;50.75;24.65;;;;;;;;;;4934322;29;20434;-84
2024/01/13 11:39:28;;;;;;;54.08;24.38;;;;;;;;;;4959233;28;20852;-82
2024/01/13 11:42:08;;;;;;;49.35;23.40;;;;;;;;;;4987455;28;20438;-84
2024/01/13 11:44:53;;;;;;;53.63;22.38;;;;;;;;;;4978515;28;20443;-82
2024/01/13 11:47:47;;;;;;;;;;;;;;;;;;;;;
2024/01/13 11:53:47;;;;;;;48.53;20.67;;;;;;;;;;4967768;28;20461;-83
2024/01/13 11:56:22;;;;;;;42.30;20.02;;;;;;;;;;4960679;28;20414;-83
2024/01/13 11:59:06;;;;;;;43.17;19.10;;;;;;;;;;4958448;28;20799;-83
2024/01/13 12:01:35;;;;;;;48.60;19.17;;;;;;;;;;4979296;28;20852;-83
2024/01/13 12:04:05;;;;;;;42.33;18.33;;;;;;;;;;4994450;28;20428;-83
2024/01/13 12:06:34;;;;;;;41.80;17.95;;;;;;;;;;4993337;28;20431;-83
2024/01/13 12:09:06;;;;;;;37.75;18.23;;;;;;;;;;4990737;28;20903;-83
2024/01/13 12:11:33;;;;;;;37.78;16.73;;;;;;;;;;5003756;28;20535;-83
2024/01/13 12:14:16;;;;;;;38.35;16.80;;;;;;;;;;4991729;28;20901;-83
2024/01/13 12:16:52;;;;;;;43.15;17.48;;;;;;;;;;4998187;28;20467;-84
2024/01/13 12:19:21;;;;;;;48.55;17.38;;;;;;;;;;5008178;28;20429;-83
2024/01/13 12:22:02;;;;;;;38.13;16.50;;;;;;;;;;5029757;28;20428;-83
2024/01/13 12:24:40;;;;;;;41.50;15.18;;;;;;;;;;5017860;28;20436;-83
2024/01/13 12:30:28;;;;;;;32.70;14.67;;;;;;;;;;5033617;28;20401;-84
2024/01/13 12:33:04;;;;;;;33.50;14.60;;;;;;;;;;5034908;28;20427;-83
2024/01/13 12:35:31;;;;;;;33.65;14.25;;;;;;;;;;5052115;28;20426;-83
2024/01/13 12:38:07;;;;;;;40.03;17.87;;;;;;;;;;5068744;28;20874;-84
2024/01/13 12:40:49;;;;;;;33.92;13.43;;;;;;;;;;5049073;28;20415;-83
2024/01/13 12:43:17;;;;;;;27.93;12.60;;;;;;;;;;5046811;28;20425;-84
2024/01/13 12:45:49;;;;;;;32.05;12.23;;;;;;;;;;5063929;28;20424;-83
2024/01/13 12:48:25;;;;;;;30.88;12.02;;;;;;;;;;5063377;28;20424;-82
2024/01/13 12:50:52;;;;;;;23.90;10.93;;;;;;;;;;5062733;28;20745;-83
2024/01/13 12:53:27;;;;;;;26.27;11.77;;;;;;;;;;5066935;28;20445;-83
2024/01/13 12:56:08;;;;;;;24.73;11.18;;;;;;;;;;5070321;28;20427;-82
2024/01/13 12:58:34;;;;;;;27.15;11.48;;;;;;;;;;5070208;28;20768;-83
2024/01/13 13:01:21;;;;;;;27.55;11.73;;;;;;;;;;5044970;28;20533;-84
2024/01/13 13:03:56;;;;;;;21.83;9.80;;;;;;;;;;5016839;28;20928;-84
2024/01/13 13:07:06;;;;;;;20.20;8.98;;;5.00;99.90;;;;;;5018258;28;20983;-84
2024/01/13 13:09:38;;;;;;;23.58;8.90;;;;;;;;;;5035327;28;20409;-84
2024/01/13 13:12:37;;;;;;;18.02;7.97;;;;;;;;;;5035693;28;20805;-84
2024/01/13 13:15:12;;;;;;;20.17;7.70;;;;;;;;;;5033391;28;20572;-83
2024/01/13 13:17:40;;;;;;;17.13;7.00;;;;;;;;;;5046843;28;20432;-85
2024/01/13 13:20:07;;;;;;;15.73;6.80;;;;;;;;;;5015633;28;20489;-84
2024/01/13 13:22:43;;;;;;;14.97;6.53;;;;;;;;;;5037690;28;20431;-85
2024/01/13 13:25:26;;;;;;;12.68;5.45;;;;;;;;;;5015935;28;20402;-84
2024/01/13 13:28:16;;;;;;;9.55;5.00;;;;;;;;;;5014315;28;20407;-85
2024/01/13 13:30:49;;;;;;;11.18;4.70;;;;;;;;;;5016811;28;20763;-84
2024/01/13 13:33:22;;;;;;;10.10;4.47;;;;;;;;;;5053214;28;20423;-85
2024/01/13 13:35:54;;;;;;;7.50;3.90;;;;;;;;;;5048215;28;20518;-84
2024/01/13 13:38:25;;;;;;;8.67;3.90;;;;;;;;;;5047704;28;20412;-83
2024/01/13 13:41:35;;;;;;;8.15;3.60;;;;;;;;;;5054686;28;20771;-84
2024/01/13 13:44:34;;;;;;;9.93;3.47;;;;;;;;;;4981088;28;20484;-84
2024/01/13 13:47:09;;;;;;;7.18;2.90;;;;;;;;;;4988136;28;20405;-84
2024/01/13 13:49:38;;;;;;;6.43;3.40;;;;;;;;;;4996118;28;20412;-84
2024/01/13 13:52:10;;;;;;;7.00;3.53;;;;;;;;;;4997015;28;20897;-84
2024/01/13 13:54:39;;;;;;;8.20;3.60;;;;;;;;;;4997580;28;20413;-83
2024/01/13 13:57:11;;;;;;;9.35;3.50;;;;;;;;;;5013512;28;20751;-85
2024/01/13 13:59:45;;;;;;;10.50;3.80;;;;;;;;;;5000709;28;20497;-83
2024/01/13 14:02:46;;;;;;;10.25;4.35;;;;;;;;;;5027380;28;20484;-84
2024/01/13 14:05:54;;;;;;;14.20;4.87;;;;;;;;;;5042179;28;20440;-84
2024/01/13 14:09:22;;;;;;;17.27;5.88;;;;;;;;;;5015725;28;20801;-84
2024/01/13 14:15:40;;;;;;;12.75;5.07;;;;;;;;;;4988425;28;20426;-84
2024/01/13 14:18:34;;;;;;;16.73;4.60;;;;;;;;;;4899546;29;20432;-84
2024/01/13 14:24:49;;;;;;;13.82;4.90;;;;;;;;;;4908413;29;20521;-83
2024/01/13 14:30:35;;;;;;;15.25;4.75;;;;;;;;;;4948473;29;20462;-84
2024/01/13 14:33:01;;;;;;;15.27;4.60;;;;;;;;;;4976310;28;20507;-83
2024/01/13 14:35:27;;;;;;;16.60;4.53;;;;;;;;;;5011028;28;20864;-82
2024/01/13 14:37:54;;;;;;;14.60;4.70;;;;;;;;;;4995137;28;20424;-83
2024/01/13 14:40:28;;;;;;;16.73;5.35;;;;;;;;;;4979241;28;20412;-84
2024/01/13 14:43:11;;;;;;;17.85;4.88;;;;;;;;;;5050494;28;20506;-83
2024/01/13 14:46:07;;;;;;;28.15;15.40;;;;;;;;;;5031665;28;20452;-84
2024/01/13 14:48:43;;;;;;;26.45;12.40;;;;;;;;;;5019935;28;20480;-84
2024/01/13 14:51:22;;;;;;;15.13;4.17;;;;;;;;;;5034508;28;20443;-83
2024/01/13 14:54:15;;;;;;;15.90;5.90;;;;;;;;;;5050518;28;20919;-84
2024/01/13 15:03:10;;;;;;;15.73;3.28;;;;;;;;;;4986303;28;20432;-83
2024/01/13 15:05:54;;;;;;;13.43;4.38;;;;;;;;;;4985739;28;20462;-84
2024/01/13 15:08:40;;;;;;;22.38;3.75;;;;;;;;;;4992742;28;20441;-83
2024/01/13 15:11:11;;;;;;;15.30;3.20;;;;;;;;;;5001987;28;20412;-84
2024/01/13 15:13:58;;;;;;;17.65;3.60;;;;;;;;;;4990144;28;20411;-83
2024/01/13 15:16:27;;;;;;;22.77;6.80;;;;;;;;;;4987811;28;20416;-83
2024/01/13 15:18:53;;;;;;;16.70;4.43;;;;;;;;;;5031270;28;20412;-83
2024/01/13 15:21:56;;;;;;;17.63;3.80;;;;;;;;;;5016332;28;20394;-82
2024/01/13 15:24:28;;;;;;;20.70;3.70;;;;;;;;;;4986069;28;20460;-83
2024/01/13 15:26:55;;;;;;;16.73;3.83;;;;;;;;;;4979158;28;20404;-83
2024/01/13 15:29:27;;;;;;;19.77;3.87;;;;;;;;;;5010162;28;20420;-85
2024/01/13 15:31:54;;;;;;;17.00;4.30;;;;;;;;;;4992825;28;20409;-83
2024/01/13 15:34:20;;;;;;;15.40;3.65;;;;;;;;;;5024167;28;20778;-83
2024/01/13 15:37:23;;;;;;;20.40;4.07;;;;;;;;;;5076866;28;20474;-83
2024/01/13 15:43:02;;;;;;;13.90;3.08;;;;;;;;;;5064104;28;20424;-83
2024/01/13 15:45:28;;;;;;;15.65;2.70;;;;;;;;;;5065323;28;20473;-84
2024/01/13 15:48:06;;;;;;;19.35;3.70;;;;;;;;;;5083559;28;20447;-81
2024/01/13 15:50:45;;;;;;;13.77;3.00;;;;;;;;;;5070301;28;20442;-82
2024/01/13 15:53:29;;;;;;;19.17;2.95;;;;;;;;;;5042584;28;20469;-83
2024/01/13 15:56:03;;;;;;;14.65;2.83;;;;;;;;;;5068535;28;20403;-83